McLeod, MT (59052)

9:36 PM MDT on September 22, 2014 (GMT -0600)
RAWS MAIN BOULDER MT US | Change Station
CLOSE
Current Station
Personal Weather Station
Location: McLeod, MT
Elevation: 5404 ft
Nearby Weather Stations

Elev 5404 ft 45.46 °N, 110.20 °W | Updated 57 minutes ago

Mostly Cloudy
Mostly Cloudy
62 °F
Feels Like 62 °F
N
5
Wind Variable Wind from SSW
Gusts 15.0 mph

Today
High -- | Low -- °F
--% Chance of Precip.
Yesterday
High -- | Low -- °F
Precip. -- in
7:08 AM 7:18 PM
Waning Crescent, 1% visible
Pressure 29.93 in
Visibility 10.0 miles
Clouds Few 12000 ft
Dew Point 45 °F
Humidity 54%
Rainfall 0.00 in
Snow Depth 0 in , 0 in , 0 in
UV 0 out of 12
Pollen 4.50 out of 12
Air Quality Not available.
Flu Activity Not available.
METAR KLVM 230253Z AUTO 29008KT 10SM FEW120 17/09 A3003 RMK AO2 SLP135 T01670089 53006

More Conditions Fewer Conditions

Pressure 29.93 in
Visibility 10.0 miles
Clouds Few 12000 ft
Dew Point 45 °F
Humidity 54%
Rainfall 0.00 in
Snow Depth 0 in , 0 in , 0 in
UV 0 out of 12
Pollen 4.50 out of 12
Air Quality Not available.
Flu Activity Not available.
METAR KLVM 230253Z AUTO 29008KT 10SM FEW120 17/09 A3003 RMK AO2 SLP135 T01670089 53006

More Conditions Fewer Conditions

10-Day Weather Forecast

Almanac

Astronomy

Sep. 22, 2014 Rise Set
Actual Time 7:08 AM MDT 7:18 PM MDT
Civil Twilight 6:38 AM MDT 7:48 PM MDT
Nautical Twilight 6:03 AM MDT 8:22 PM MDT
Astronomical Twilight 5:28 AM MDT 8:58 PM MDT
Moon 5:37 AM MDT (9/22) 6:29 PM MDT (9/22)
Length of Visible Light 13h 09m
Length of Day
12h 10m
Tomorrow will be 3m 10s shorter.
Waning Crescent, 1% of the Moon is Illuminated
Today
Waning Crescent
Sep 24
New
Oct 1
First Quarter
Oct 8
Full
Oct 15
Last Quarter

Today's Extremes

State Highs State Lows

Community

WunderPhotos

Upload Photos

1,755,604 photos uploaded!

Nearby

Snow Depth

Station Depth Elevation
West Yellowstone 0 in 6700 ft
Short Creek 0 in 7000 ft
Emery Creek 0 in 4350 ft
Hoodoo Basin 0 in 6050 ft
Dupuyer Creek 0 in 5750 ft

Earthquake Activity

City Distance Mag. Time & Date
No recent earthquake activity has been reported nearby.
Minimum magnitude displayed is 2.5.

Coastal Water Temperatures

Place Temperature
No Stations Reporting

Nearby Weather Stations